Nearby METAR Reports

 

KEDC - Austin Exec, Texas, USA
Distance from station: SW 16mi, 25km
Updated: Sun, 09-Aug-2020 12:55am CDT
Clear
Clear
 Wind from S
Wind: S 7 mph , 11 km/h
Temperature: 82°F , 28°C
Heat Index: 87°F , 31°C
Dew Point: 73°F , 23°C
Humidity: 74%
Barometer: 30.09 inHg , 1019 hPa
Clouds: Clear
Visibility: 10 miles , 16 km
2020/08/09 05:55 KEDC 090555Z AUTO 18006KT 10SM CLR 28/23 A3009 RMK AO2
KGTU - Georgetown, Texas, USA
Distance from station: WNW 17mi, 28km
Updated: Sun, 09-Aug-2020 12:56am CDT
Clear
Clear
 Wind from S
Wind: S 9 mph , 15 km/h
Temperature: 84°F , 29°C
Heat Index: 90°F , 32°C
Dew Point: 73°F , 23°C
Humidity: 70%
Barometer: 30.10 inHg , 1019.3 hPa
Clouds: Clear
Visibility: 10 miles , 16 km
2020/08/09 05:56 KGTU 090556Z AUTO 17008KT 10SM CLR 29/23 A3010 RMK AO2 SLP183 T02890228 10361 20289 403720244 51008
 
KATT - Austin/Mabry, Texas, USA
Distance from station: SW 28mi, 45km
Updated: Sun, 09-Aug-2020 12:51am CDT
Clear
Clear
 Wind from varies
Wind: varies 3 mph , 6 km/h
Temperature: 84°F , 29°C
Heat Index: 89°F , 32°C
Dew Point: 72°F , 22°C
Humidity: 66%
Barometer: 30.10 inHg , 1019.3 hPa
Clouds: Clear
Visibility: 10 miles , 16 km
2020/08/09 05:51 KATT 090551Z AUTO VRB03KT 10SM CLR 29/22 A3010 RMK AO2 SLP174 T02890217 10367 20289 404000250 50011 $
KAUS - Austin, Texas, USA
Distance from station: SSW 32mi, 51km
Updated: Sun, 09-Aug-2020 12:53am CDT
Few Clouds
Few Clouds
 Wind from S
Wind: S 9 mph , 15 km/h
Temperature: 82°F , 28°C
Heat Index: 87°F , 31°C
Dew Point: 73°F , 23°C
Humidity: 74%
Barometer: 30.08 inHg , 1018.6 hPa
Clouds: Few Clouds
Visibility: 10 miles , 16 km
Cloud details: Few Clouds 25000 ft
2020/08/09 05:53 KAUS 090553Z 18008KT 10SM FEW250 28/23 A3008 RMK AO2 SLP174 T02780228 10356 20278 403780217 51011
 
KRYW - Lago Vista, Texas, USA
Distance from station: W 33mi, 54km
Updated: Sun, 09-Aug-2020 12:55am CDT
Clear
Clear
 Wind from S
Wind: S 9 mph , 15 km/h, Gust: 16 mph , 26 km/h
Temperature: 81°F , 27°C
Heat Index: 85°F , 29°C
Dew Point: 72°F , 22°C
Humidity: 74%
Barometer: 30.12 inHg , 1020 hPa
Clouds: Clear
Visibility: 10 miles , 16 km
2020/08/09 05:55 KRYW 090555Z AUTO 17008G14KT 10SM CLR 27/22 A3012 RMK AO2 T02710219 10346 20271 403610233
KILE - Killeen Muni, Texas, USA
Distance from station: NNW 37mi, 59km
Updated: Sun, 09-Aug-2020 12:56am CDT

 Wind from S
Wind: S 9 mph , 15 km/h
Temperature: 82°F , 28°C
Heat Index: 87°F , 31°C
Dew Point: 73°F , 23°C
Humidity: 74%
Barometer: 30.08 inHg , 1018.6 hPa
Visibility: 10 miles , 16 km
2020/08/09 05:56 KILE 090556Z AUTO 17008KT 10SM 28/23 A3008 RMK AO2 SLP170 T02830228 10361 20283 403780233 51008 $
 
KTPL - Temple/Miller, Texas, USA
Distance from station: N 38mi, 61km
Updated: Sun, 09-Aug-2020 12:51am CDT
Clear
Clear
 Wind from SSE
Wind: SSE 16 mph , 26 km/h
Temperature: 82°F , 28°C
Heat Index: 86°F , 30°C
Dew Point: 72°F , 22°C
Humidity: 70%
Barometer: 30.08 inHg , 1018.6 hPa
Clouds: Clear
Visibility: 10 miles , 16 km
2020/08/09 05:51 KTPL 090551Z AUTO 16014KT 10SM CLR 28/22 A3008 RMK AO2 SLP171 T02830222 10361 20283 403780233 51008
KGYB - Giddings-Lee, Texas, USA
Distance from station: SE 39mi, 62km
Updated: Sun, 09-Aug-2020 12:55am CDT
Clear
Clear
 Wind from S
Wind: S 7 mph , 11 km/h
Temperature: 84°F , 29°C
Heat Index: 94°F , 34°C
Dew Point: 77°F , 25°C
Humidity: 79%
Barometer: 30.10 inHg , 1019.3 hPa
Clouds: Clear
Visibility: 10 miles , 16 km
2020/08/09 05:55 KGYB 090555Z AUTO 19006KT 10SM CLR 29/25 A3010 RMK AO2 T02870247 10360 20287 403840221
 
KGRK - Gray/Ft Hood, Texas, USA
Distance from station: NW 42mi, 67km
Updated: Sun, 09-Aug-2020 12:58am CDT
Clear
Clear
 Wind from SSE
Wind: SSE 13 mph , 20 km/h
Temperature: 84°F , 29°C
Heat Index: 89°F , 32°C
Dew Point: 72°F , 22°C
Humidity: 66%
Barometer: 30.07 inHg , 1018.3 hPa
Clouds: Clear
Visibility: 10 miles , 16 km
2020/08/09 05:58 KGRK 090558Z AUTO 16011KT 10SM CLR 29/22 A3007 RMK AO2 SLP170 T02850218 10354 20285 403700225 51009
KHLR - Ft Hood/Killeen, Texas, USA
Distance from station: NNW 42mi, 67km
Updated: Sun, 09-Aug-2020 12:58am CDT
Clear
Clear
 Wind from S
Wind: S 12 mph , 19 km/h
Temperature: 84°F , 29°C
Heat Index: 89°F , 32°C
Dew Point: 72°F , 22°C
Humidity: 66%
Barometer: 30.08 inHg , 1018.6 hPa
Clouds: Clear
Visibility: 9 miles , 14 km
2020/08/09 05:58 KHLR 090558Z AUTO 17010KT 9SM CLR 29/22 A3008 RMK AO2 SLP173 T02850219 10359 20285 403720237 51008
 
KRWV - Caldwell, Texas, USA
Distance from station: E 43mi, 69km
Updated: Sun, 09-Aug-2020 12:50am CDT
Clear
Clear
 Wind from SSE
Wind: SSE 12 mph , 19 km/h
Temperature: 81°F , 27°C
Heat Index: 87°F , 31°C
Dew Point: 75°F , 24°C
Humidity: 84%
Barometer: 30.09 inHg , 1019 hPa
Clouds: Clear
Visibility: 10 miles , 16 km
2020/08/09 05:50 KRWV 090550Z AUTO 16010KT 10SM CLR 27/24 A3009 RMK AO2 T02700245 10338 20270
KBMQ - Burnet, Texas, USA
Distance from station: WNW 50mi, 80km
Updated: Sun, 09-Aug-2020 12:53am CDT
Clear
Clear
 Wind from S
Wind: S 10 mph , 17 km/h
Temperature: 82°F , 28°C
Heat Index: 86°F , 30°C
Dew Point: 70°F , 21°C
Humidity: 66%
Barometer: 30.12 inHg , 1020 hPa
Clouds: Clear
Visibility: 10 miles , 16 km
2020/08/09 05:53 KBMQ 090553Z AUTO 17009KT 10SM CLR 28/21 A3012 RMK AO2 SLP177 T02780206 10350 20278 403560228 51009